Flight Track Log - Related Links

Times and Time Zones

All times are in EDT time to prevent confusion due to time zone crossing. See the NKS647 flight status page for this flight to view local times or setup timezone preferences in your user account.

Time Position Orientation Groundspeed Altitude Reporting Facility
EDT Latitude Longitude Course Direction KTS MPH feet Rate Location/Type
Mon 02:50:40 AM 43.1037 -78.9851 224° Southwest 163 188 2,000  Level FlightAware (CYYZ)
Mon 02:50:45 AM 43.1005 -78.9882 216° Southwest 167 192 2,200 2,211 Climbing FlightAware (CYYZ)
Mon 02:50:59 AM 43.0913 -78.9965 214° Southwest 174 200 2,700 1,920 Climbing FlightAware (CYYZ)
Mon 02:51:10 AM 43.0832 -79.0023 203° Southwest 184 212 3,000 1,500 Climbing FlightAware (CYYZ)
Mon 02:51:15 AM 43.0791 -79.0035 193° South 192 221 3,100 1,333 Climbing FlightAware (CYYZ)
Mon 02:51:19 AM 43.0746 -79.0037 183° South 199 229 3,200 1,333 Climbing FlightAware (CYYZ)
Mon 02:51:24 AM 43.0704 -79.0032 175° South 209 241 3,300 600 Climbing FlightAware (CYYZ)
Mon 02:51:29 AM 43.0652 -79.0020 170° South 221 254 3,300 1,143 Level FlightAware (CYYZ)
Mon 02:51:45 AM 43.0481 -78.9971 167° South 250 288 3,700 2,000 Climbing FlightAware (CYYZ)
Mon 02:51:59 AM 43.0305 -78.9912 165° South 266 306 4,300 2,842 Climbing FlightAware (CYYZ)
Mon 02:52:04 AM 43.0297 -78.9909 166° South 270 311 4,600 3,200 Climbing FlightAware (EPLB / LUZ)
Mon 02:52:14 AM 43.0131 -78.9851 165° South 273 314 5,100 3,000 Climbing FlightAware (CYYZ)
Mon 02:52:30 AM 42.9927 -78.9782 166° South 281 323 5,900 3,484 Climbing FlightAware (CYYZ)
Mon 02:52:45 AM 42.9745 -78.9723 166° South 279 321 6,900 4,200 Climbing FlightAware (CYYZ)
Mon 02:53:00 AM 42.9552 -78.9663 167° South 274 315 8,000 3,800 Climbing FlightAware (CYYZ)
Mon 02:53:15 AM 42.9355 -78.9606 169° South 278 320 8,800 3,000 Climbing FlightAware (CYYZ)
Mon 02:53:30 AM 42.9168 -78.9598 183° South 279 321 9,500 2,280 Climbing FlightAware (CYYZ)
Mon 02:54:05 AM 42.8705 -78.9627 183° South 306 352 10,700 1,477 Climbing FlightAware (CYYZ)
Mon 02:54:35 AM 42.8235 -78.9652 183° South 350 403 11,100 1,500 Climbing FlightAware (CYYZ)
Mon 02:55:05 AM 42.7737 -78.9675 183° South 367 422 12,200 2,600 Climbing FlightAware (CYYZ)
Mon 02:55:35 AM 42.7221 -78.9699 183° South 370 426 13,700 3,000 Climbing FlightAware (CYYZ)
Mon 02:56:05 AM 42.6714 -78.9731 184° South 367 422 15,200 2,800 Climbing FlightAware (CYYZ)
Mon 02:56:35 AM 42.6197 -78.9789 185° South 369 425 16,500 2,542 Climbing FlightAware (CYYZ)
Mon 02:57:04 AM 42.5711 -78.9843 185° South 370 426 17,700 2,200 Climbing FlightAware (CYYZ)
Mon 02:57:35 AM 42.5178 -78.9897 185° South 383 441 18,700 1,900 Climbing FlightAware (CYYZ)
Mon 02:58:04 AM 42.4645 -78.9948 185° South 390 449 19,600 1,700 Climbing FlightAware (CYYZ)
Mon 02:58:35 AM 42.4078 -79.0002 184° South 402 463 20,400 1,645 Climbing FlightAware (CYYZ)
Mon 02:59:06 AM 42.3517 -79.0053 185° South 410 472 21,300 1,600 Climbing FlightAware (CYYZ)
Mon 02:59:35 AM 42.2940 -79.0109 184° South 418 481 22,000 1,627 Climbing FlightAware (CYYZ)
Mon 03:00:05 AM 42.2364 -79.0163 185° South 422 486 22,900 1,600 Climbing FlightAware (CYYZ)
Mon 03:00:35 AM 42.1768 -79.0219 185° South 431 496 23,600 1,395 Climbing FlightAware (CYYZ)
Mon 03:00:48 AM 42.1515 -79.0244 184° South 427 491 23,900 1,800 Climbing FlightAware (EPLB / LUZ)
Mon 03:01:05 AM 42.1170 -79.0277 184° South 433 498 24,500 2,000 Climbing FlightAware (CYYZ)
Mon 03:01:24 AM 42.0802 -79.0312 184° South 432 497 25,100 1,600 Climbing FlightAware (EPLB / LUZ)
Mon 03:01:35 AM 42.0586 -79.0332 185° South 434 499 25,300 1,050 Climbing FlightAware (CYYZ)
Mon 03:02:04 AM 41.9989 -79.0389 185° South 443 510 25,800 1,000 Climbing FlightAware (CYYZ)
Mon 03:02:35 AM 41.9328 -79.0451 185° South 455 524 26,300 955 Climbing FlightAware (CYYZ)
Mon 03:02:48 AM 41.9071 -79.0476 184° South 452 520 26,500 1,000 Climbing FlightAware (KWWD)
Mon 03:03:05 AM 41.8704 -79.0511 185° South 464 534 26,800 1,277 Climbing FlightAware (CYYZ)
Mon 03:03:35 AM 41.8045 -79.0572 184° South 467 537 27,500 1,627 Climbing FlightAware (CYYZ)
Mon 03:04:04 AM 41.7431 -79.0629 184° South 463 533 28,400 1,400 Climbing FlightAware (CYYZ)
Mon 03:04:35 AM 41.6765 -79.0691 185° South 469 540 28,900 871 Climbing FlightAware (CYYZ)
Mon 03:05:06 AM 41.6104 -79.0754 184° South 476 548 29,300 984 Climbing FlightAware (CYYZ)
Mon 03:05:36 AM 41.5446 -79.0814 184° South 479 551 29,900 1,220 Climbing FlightAware (CYYZ)
Mon 03:06:05 AM 41.4774 -79.0877 185° South 481 554 30,500 1,525 Climbing FlightAware (CYYZ)
Mon 03:06:35 AM 41.4145 -79.0935 185° South 472 543 31,400 1,857 Climbing FlightAware (CYYZ)
Mon 03:06:47 AM 41.3886 -79.0959 184° South 472 543 31,800 1,655 Climbing FlightAware (EPLB / LUZ)
Mon 03:07:04 AM 41.3509 -79.0994 185° South 470 541 32,200 1,455 Climbing FlightAware (CYYZ)
Mon 03:07:20 AM 41.3151 -79.1028 184° South 465 535 32,600 1,935 Climbing FlightAware (EPLB / LUZ)
Mon 03:07:35 AM 41.2821 -79.1057 184° South 462 532 33,200 1,773 Climbing FlightAware (CYYZ)
Mon 03:08:04 AM 41.2217 -79.1112 185° South 458 527 33,900 1,455 Climbing FlightAware (CYYZ)
Mon 03:08:08 AM 41.2143 -79.1119 184° South 457 526 34,000 1,742 Climbing FlightAware (EPLB / LUZ)
Mon 03:08:35 AM 41.1583 -79.1170 184° South 449 517 34,800 1,636 Climbing FlightAware (CYYZ)
Mon 03:08:41 AM 41.1829 -79.1147 184° South 448 516 34,900 621 Climbing FlightAware (EPLB / LUZ)
Mon 03:09:04 AM 41.0963 -79.1228 185° South 452 520 35,100 649 Climbing FlightAware (CYYZ)
Mon 03:09:18 AM 41.0674 -79.1255 184° South 469 540 35,300 968 Climbing FlightAware (KWWD)
Mon 03:09:35 AM 41.0347 -79.1285 185° South 455 524 35,600 1,091 Climbing FlightAware (CYYZ)
Mon 03:09:51 AM 41.0000 -79.1317 184° South 454 522 35,900 828 Climbing FlightAware (KWWD)
Mon 03:10:04 AM 40.9720 -79.1343 184° South 449 517 36,000 136 Climbing FlightAware (CYYZ)
Mon 03:10:35 AM 40.9074 -79.1402 185° South 455 524 36,000  Level FlightAware (CYYZ)
Mon 03:11:06 AM 40.8420 -79.1463 184° South 465 535 36,000  Level FlightAware (CYYZ)
Mon 03:11:36 AM 40.7777 -79.1521 184° South 465 535 36,000  Level FlightAware (CYYZ)
Mon 03:12:04 AM 40.7183 -79.1574 184° South 463 533 36,000  Level FlightAware (CYYZ)
Mon 03:12:34 AM 40.6555 -79.1631 184° South 462 532 36,000  Level FlightAware (CYYZ)
Mon 03:13:05 AM 40.5876 -79.1692 184° South 461 531 36,000  Level FlightAware (CYYZ)
Mon 03:13:35 AM 40.5238 -79.1749 184° South 461 531 36,000  Level FlightAware (CYYZ)
Mon 03:14:05 AM 40.4585 -79.1807 184° South 461 531 36,000  Level FlightAware (CYYZ)
Mon 03:14:36 AM 40.3940 -79.1865 184° South 462 532 36,000  Level FlightAware (CYYZ)
Mon 03:15:05 AM 40.3325 -79.1921 184° South 463 533 36,000  Level FlightAware (CYYZ)
Mon 03:15:35 AM 40.2670 -79.1981 184° South 463 533 36,000  Level FlightAware (CYYZ)
Mon 03:16:01 AM 40.2105 -79.2032 184° South 455 524 36,000  Level FlightAware (KWWD)
Mon 03:16:03 AM 40.2115 -79.2031 184° South 463 533 36,000  Level FlightAware (CYYZ)
Mon 03:16:31 AM 40.1490 -79.2087 184° South 464 534 36,000  Level FlightAware (KWWD)
Mon 03:17:05 AM 40.0750 -79.2153 184° South 468 539 36,000  Level FlightAware (CYYZ)
Mon 03:17:12 AM 40.0599 -79.2167 184° South 466 536 36,000  Level FlightAware (KWWD)
Mon 03:17:35 AM 40.0093 -79.2211 184° South 469 540 36,000  Level FlightAware (CYYZ)
Mon 03:17:45 AM 39.9871 -79.2231 184° South 470 541 36,000  Level FlightAware (KWWD)
Mon 03:18:02 AM 39.9582 -79.2257 184° South 469 540 36,000  Level FlightAware (CYYZ)
Mon 03:18:51 AM 39.8459 -79.2355 184° South 467 537 36,000  Level FlightAware (KWWD)
Mon 03:19:40 AM 39.7396 -79.2449 184° South 454 522 36,000  Level FlightAware (KWWD)
Mon 03:20:20 AM 39.6549 -79.2524 184° South 453 521 36,000  Level FlightAware (KWWD)
Mon 03:23:48 AM 39.2147 -79.2910 184° South 450 518 36,000  Level FlightAware (KWWD)
Mon 03:25:00 AM 39.0621 -79.3042 184° South 450 518 36,000  Level FlightAware (KWWD)
Mon 03:27:05 AM 38.7953 -79.3271 184° South 463 533 36,000  Level FlightAware
Mon 03:27:45 AM 38.7105 -79.3344 184° South 461 531 36,000  Level FlightAware
Mon 03:28:24 AM 38.6270 -79.3416 184° South 462 532 36,000  Level FlightAware
Mon 03:29:04 AM 38.5420 -79.3488 184° South 458 527 36,000  Level FlightAware
Mon 03:29:46 AM 38.4558 -79.3561 184° South 457 526 36,000  Level FlightAware
Mon 03:30:26 AM 38.3704 -79.3635 184° South 457 526 36,000  Level FlightAware
Mon 03:31:05 AM 38.2890 -79.3703 184° South 455 524 36,000  Level FlightAware
Mon 03:32:05 AM 38.1618 -79.3811 184° South 459 528 36,000  Level FlightAware
Mon 03:32:46 AM 38.0751 -79.3883 184° South 457 526 36,000  Level FlightAware
Mon 03:33:25 AM 37.9924 -79.3953 184° South 460 529 36,000  Level FlightAware
Mon 03:34:05 AM 37.9055 -79.4025 184° South 454 522 36,000  Level FlightAware
Mon 03:34:44 AM 37.8246 -79.4094 184° South 455 524 36,000  Level FlightAware
Mon 03:35:26 AM 37.7374 -79.4166 184° South 455 524 36,000  Level FlightAware
Mon 03:36:05 AM 37.6559 -79.4233 184° South 454 522 36,000  Level FlightAware
Mon 03:36:40 AM 37.5805 -79.4296 184° South 459 528 36,000  Level FlightAware
Mon 03:37:13 AM 37.5108 -79.4354 184° South 451 519 36,000  Level FlightAware (KWWD)
Mon 03:37:44 AM 37.4458 -79.4408 184° South 452 520 36,000  Level FlightAware (KWWD)
Mon 03:38:20 AM 37.3685 -79.4473 184° South 458 527 36,000  Level FlightAware
Mon 03:39:06 AM 37.2728 -79.4551 184° South 451 519 36,000  Level FlightAware
Mon 03:40:20 AM 37.1194 -79.4677 184° South 448 516 36,000  Level FlightAware
Mon 03:41:20 AM 36.9911 -79.4782 184° South 454 522 36,000  Level FlightAware
Mon 03:41:59 AM 36.9098 -79.4848 184° South 455 524 36,000  Level FlightAware
Mon 03:42:30 AM 36.8472 -79.4899 184° South 453 521 36,000  Level FlightAware
Mon 03:46:44 AM 36.3135 -79.5332 184° South 459 528 36,000  Level FlightAware
Mon 03:47:16 AM 36.2446 -79.5387 184° South 457 526 36,000  Level FlightAware
Mon 03:48:03 AM 36.1628 -79.5452 184° South 453 521 36,000  Level FlightAware
Mon 03:48:45 AM 36.0586 -79.5535 184° South 452 520 36,000  Level FlightAware
Mon 03:49:25 AM 36.0076 -79.5575 184° South 456 525 36,000  Level FlightAware
Mon 03:50:05 AM 35.8901 -79.5670 184° South 456 525 36,000  Level FlightAware
Mon 03:50:45 AM 35.8055 -79.5737 184° South 454 522 36,000  Level FlightAware
Mon 03:51:25 AM 35.7215 -79.5804 184° South 455 524 36,000  Level FlightAware
Mon 03:52:03 AM 35.6453 -79.5864 184° South 455 524 36,000  Level FlightAware
Mon 03:52:40 AM 35.5662 -79.5927 184° South 453 521 36,000  Level FlightAware
Mon 03:53:25 AM 35.4713 -79.6001 184° South 452 520 36,000  Level FlightAware
Mon 03:54:05 AM 35.3882 -79.6066 184° South 452 520 36,000  Level FlightAware
Mon 03:54:39 AM 35.3183 -79.6121 184° South 452 520 36,000  Level FlightAware
Mon 03:55:25 AM 35.2390 -79.6183 184° South 452 520 36,000  Level FlightAware
Mon 03:56:05 AM 35.1367 -79.6263 184° South 455 524 36,000  Level FlightAware
Mon 03:56:44 AM 35.0592 -79.6323 184° South 455 524 36,000  Level FlightAware
Mon 03:57:25 AM 34.9680 -79.6394 184° South 456 525 36,000  Level FlightAware
Mon 03:58:05 AM 34.8944 -79.6451 184° South 456 525 36,000  Level FlightAware
Mon 03:58:45 AM 34.8000 -79.6524 184° South 456 525 36,000  Level FlightAware
Mon 03:59:35 AM 34.6942 -79.6605 184° South 455 524 36,000  Level FlightAware
Mon 04:00:24 AM 34.5927 -79.6683 184° South 455 524 36,000  Level FlightAware
Mon 04:01:51 AM 34.4109 -79.6823 184° South 454 522 36,000  Level FlightAware
Mon 04:02:21 AM 34.3611 -79.6881 184° South 458 527 36,000  Level Jacksonville Center
Mon 04:03:21 AM 34.2300 -79.6981 184° South 442 509 36,000  Level Jacksonville Center
Mon 04:04:21 AM 34.1050 -79.7075 184° South 442 509 36,000  Level Jacksonville Center
Mon 04:05:21 AM 33.9781 -79.7172 184° South 442 509 36,000  Level Jacksonville Center
Mon 04:06:21 AM 33.8508 -79.7242 183° South 447 514 36,000 -50 Level Jacksonville Center
Mon 04:07:21 AM 33.7258 -79.7336 184° South 452 520 35,900  Descending Jacksonville Center
Mon 04:08:21 AM 33.5989 -79.7458 185° South 457 526 36,000  Climbing Jacksonville Center
Mon 04:09:21 AM 33.4739 -79.7528 183° South 457 526 35,900  Descending Jacksonville Center
Mon 04:10:21 AM 33.3489 -79.7594 183° South 457 526 36,000 50 Climbing Jacksonville Center
Mon 04:11:21 AM 33.2219 -79.7714 185° South 457 526 36,000 -50 Level Jacksonville Center
Mon 04:12:21 AM 33.0947 -79.7808 184° South 457 526 35,900  Descending Jacksonville Center
Mon 04:13:21 AM 32.9906 -79.7869 183° South 457 526 36,000 15 Climbing Jacksonville Center
Mon 04:19:06 AM 32.8205 -79.8020 184° South 456 525 36,000  Level FlightAware
Mon 04:20:21 AM 32.0906 -79.8569 184° South 457 526 36,000  Level Jacksonville Center
Mon 04:21:21 AM 31.9656 -79.8658 183° South 457 526 36,000  Level Jacksonville Center
Mon 04:22:21 AM 31.8361 -79.8750 183° South 457 526 36,000  Level Jacksonville Center
Mon 04:23:21 AM 31.7111 -79.8839 183° South 457 526 36,000  Level Jacksonville Center
Mon 04:24:21 AM 31.5842 -79.8931 184° South 457 526 36,000 -50 Level Jacksonville Center
Mon 04:25:21 AM 31.4569 -79.9019 183° South 457 526 35,900  Descending Jacksonville Center
Mon 04:26:21 AM 31.3319 -79.9108 183° South 457 526 36,000  Climbing Jacksonville Center
Mon 04:28:26 AM 31.0694 -79.9294 183° South 457 526 35,900 -32 Descending Miami Center
Mon 04:29:29 AM 30.9417 -79.9381 183° South 457 526 35,900 48 Level Miami Center
Mon 04:30:30 AM 30.8139 -79.9478 184° South 458 527 36,000  Climbing Miami Center
Mon 04:31:27 AM 30.6878 -79.9567 183° South 456 525 35,900 -51 Descending Miami Center
Mon 04:32:28 AM 30.5594 -79.9664 184° South 457 526 35,900 14 Level Miami Center
Mon 04:38:32 AM 29.7682 -80.0199 184° South 451 519 36,000 14 Climbing FlightAware
Mon 04:39:23 AM 29.6638 -80.0273 184° South 457 526 36,000  Level FlightAware
Mon 04:39:54 AM 29.6148 -80.0306 183° South 458 527 36,000  Level FlightAware
Mon 04:40:43 AM 29.4917 -80.0390 183° South 454 522 36,000  Level FlightAware
Mon 04:41:24 AM 29.4072 -80.0447 184° South 458 527 36,000  Level FlightAware
Mon 04:42:03 AM 29.3229 -80.0505 183° South 459 528 36,000  Level FlightAware
Mon 04:43:03 AM 29.1980 -80.0590 184° South 461 531 36,000  Level FlightAware
Mon 04:43:42 AM 29.1184 -80.0645 184° South 464 534 36,000  Level FlightAware
Mon 04:44:22 AM 29.0268 -80.0708 183° South 463 533 36,000  Level FlightAware
Mon 04:44:59 AM 28.9482 -80.0761 184° South 464 534 36,000  Level FlightAware
Mon 04:45:44 AM 28.8501 -80.0827 184° South 464 534 36,000  Level FlightAware
Mon 04:46:25 AM 28.7645 -80.0886 184° South 464 534 36,000  Level FlightAware
Mon 04:47:04 AM 28.6791 -80.0945 183° South 462 532 36,000  Level FlightAware
Mon 04:47:44 AM 28.5935 -80.1002 183° South 463 533 36,000  Level FlightAware
Mon 04:48:25 AM 28.5162 -80.1054 183° South 462 532 36,000  Level FlightAware
Mon 04:49:05 AM 28.4252 -80.1115 184° South 465 535 36,000  Level FlightAware
Mon 04:49:46 AM 28.3331 -80.1178 184° South 471 542 36,000  Level FlightAware
Mon 04:50:25 AM 28.2465 -80.1238 184° South 478 550 36,000  Level FlightAware
Mon 04:51:06 AM 28.1563 -80.1297 183° South 480 552 36,000  Level FlightAware
Mon 04:51:45 AM 28.0718 -80.1350 183° South 478 550 36,000  Level FlightAware
Mon 04:52:26 AM 27.9796 -80.1413 184° South 477 549 36,000 -148 Level FlightAware
Mon 04:53:06 AM 27.8929 -80.1472 184° South 476 548 35,800 -1,200 Descending FlightAware
Mon 04:53:46 AM 27.8073 -80.1531 184° South 474 545 34,400 -2,582 Descending FlightAware
Mon 04:54:25 AM 27.7170 -80.1591 183° South 473 544 32,400 -3,225 Descending FlightAware
Mon 04:55:06 AM 27.6302 -80.1649 183° South 473 544 30,100 -3,512 Descending FlightAware
Mon 04:55:47 AM 27.5478 -80.1701 183° South 476 548 27,600 -3,750 Descending FlightAware
Mon 04:56:26 AM 27.4521 -80.1764 183° South 477 549 25,100 -3,465 Descending FlightAware
Mon 04:56:58 AM 27.3820 -80.1766 179° South 465 535 23,500 -2,970 Descending FlightAware
Mon 04:58:07 AM 27.2584 -80.1742 179° South 446 513 20,100 -3,028 Descending FlightAware
Mon 04:58:45 AM 27.1610 -80.1732 180° South 437 503 18,100 -2,978 Descending FlightAware
Mon 05:00:24 AM 26.9695 -80.1720 180° South 410 472 13,300 -2,884 Descending FlightAware (RJTF)
Mon 05:00:54 AM 26.9126 -80.1716 180° South 400 460 11,900 -2,000 Descending FlightAware (RJTF)
Mon 05:01:39 AM 26.8357 -80.1714 180° South 338 389 10,800 -1,280 Descending FlightAware (RJTF)
Mon 05:02:09 AM 26.7940 -80.1711 180° South 304 350 10,300 -1,333 Descending FlightAware (RJTF)
Mon 05:02:24 AM 26.7694 -80.1709 179° South 296 341 9,800 -2,200 Descending FlightAware (RJTF)
Mon 05:02:39 AM 26.7521 -80.1708 179° South 290 334 9,200 -2,200 Descending FlightAware (RJTF)
Mon 05:02:54 AM 26.7302 -80.1706 180° South 286 329 8,700 -2,000 Descending FlightAware (RJTF)
Mon 05:03:09 AM 26.7114 -80.1704 180° South 285 328 8,200 -1,600 Descending FlightAware (RJTF)
Mon 05:03:24 AM 26.6911 -80.1702 179° South 282 325 7,900 -600 Descending FlightAware (RJTF)
Mon 05:03:39 AM 26.6705 -80.1701 180° South 280 322 7,900  Level FlightAware (RJTF)
Mon 05:03:54 AM 26.6504 -80.1696 178° South 280 322 7,900  Level FlightAware (RJTF)
Mon 05:04:10 AM 26.6313 -80.1687 178° South 281 323 7,900  Level FlightAware (RJTF)
Mon 05:04:25 AM 26.6120 -80.1679 178° South 280 322 7,900  Level FlightAware (RJTF)
Mon 05:04:40 AM 26.5936 -80.1670 178° South 281 323 7,900  Level FlightAware (RJTF)
Mon 05:04:55 AM 26.5744 -80.1661 177° South 282 325 7,900  Level FlightAware (RJTF)
Mon 05:05:25 AM 26.5350 -80.1643 178° South 281 323 7,900  Level FlightAware (RJTF)
Mon 05:05:40 AM 26.5181 -80.1640 179° South 282 325 7,900 88 Level FlightAware (RJTF)
Mon 05:06:33 AM 26.4489 -80.1642 179° South 281 323 8,000 -167 Climbing Miami Center
Mon 05:07:28 AM 26.3778 -80.1611 178° South 276 318 7,600 -985 Descending Miami Center
Mon 05:07:40 AM 26.3611 -80.1600 177° South 278 320 6,900 -2,384 Descending Miami Center
Mon 05:08:41 AM 26.2867 -80.1556 177° South 269 310 4,700 -1,488 Descending Miami Center
Mon 05:09:41 AM 26.2178 -80.1519 177° South 267 307 3,900 -397 Descending Miami Center
Mon 05:10:42 AM 26.1550 -80.1747 198° South 252 290 3,900 -50 Level Miami Center
Mon 05:11:40 AM 26.1519 -80.2553 268° West 247 284 3,800 -595 Descending Miami Center
Mon 05:12:43 AM 26.1517 -80.3247 270° West 245 282 2,700 -1,111 Descending Miami Center
Mon 05:13:01 AM 26.1397 -80.3494 242° Southwest 240 276 2,300 -1,180 Descending Miami Center
Mon 05:13:44 AM 26.1058 -80.3492 180° South 218 251 1,500 -716 Descending Miami Center
Mon 05:14:08 AM 26.0911 -80.3225 122° Southeast 195 224 1,500 -100 Level Miami Center
Mon 05:14:44 AM 26.0811 -80.2967 113° Southeast 190 219 1,400  Descending Miami Center
Mon 05:14:57 AM 26.0769 -80.2819 107° East 177 204 1,500 -100 Climbing Miami Center
Mon 05:15:44 AM 26.0775 -80.2439 89° East 173 199 1,300 -400 Descending Miami Center
Mon 05:15:57 AM 26.0761 -80.2286 96° East 166 191 1,100 -828 Descending Miami Center
Mon 05:16:42 AM 26.0775 -80.1989 87° East 144 166 500 2,774 Descending Miami Center
Mon 05:17:43 AM 26.0769 -80.1572 91° East 129 148 6,000 5,410 Climbing Miami Center
Mon 05:19:00 AM 26.0667 -80.1500 167° South  Level FlightAware

Login

Don't have an account? Register now (free) for customized features, flight alerts, and more!